Terminal Aerodrome Forecast
Issued by NWS Cleveland, OH

Home | Current Version | Previous Version | Text Only | Print | Product List | Glossary On
Versions: 1 2 3 4 5 6 7 8 9 10 11 12 13 14 15 16 17 18 19 20 21 22 23 24 25 26 27
000
FTUS41 KCLE 260223 AAA
TAFCLE
TAF AMD
KCLE 260223Z 2602/2706 01008KT P6SM BKN015
     FM260800 33005KT P6SM SCT035
     FM261500 30007KT P6SM SKC
     FM270000 VRB03KT P6SM SKC=

USA.gov is the U.S. government's official web portal to all federal, state and local government web resources and services.